Time;durP1;ratioP1;P1;durP2;ratioP2;P2;SDS_P1;SDS_P2;PMS_P1;PMS_P2;Temp;Humidity;BMP_temperature;BMP_pressure;BME280_temperature;BME280_humidity;BME280_pressure;Samples;Min_cycle;Max_cycle;Signal;HPM_P1;HPM_P2
2023/06/12 00:00:06;;;;;;;6.03;5.40;;;;;;;19.00;45.38;100476.38;10168582;29;20526;-77
2023/06/12 00:05:19;;;;;;;6.40;4.75;;;;;;;18.95;45.33;100481.50;10169539;29;20104;-77
2023/06/12 00:10:22;;;;;;;6.43;4.95;;;;;;;18.83;45.30;100493.81;10167715;29;20488;-77
2023/06/12 00:15:25;;;;;;;9.73;5.45;;;;;;;18.79;45.36;100486.00;10170067;29;20099;-77
2023/06/12 00:20:29;;;;;;;6.95;5.15;;;;;;;18.55;45.50;100489.59;10169134;29;20052;-77
2023/06/12 00:25:34;;;;;;;6.03;5.10;;;;;;;18.59;45.99;100484.66;10169191;29;20388;-77
2023/06/12 00:30:36;;;;;;;7.05;4.95;;;;;;;18.50;46.59;100483.84;10168473;29;20046;-77
2023/06/12 00:35:41;;;;;;;6.30;4.97;;;;;;;18.54;46.77;100478.88;10167574;29;20044;-77
2023/06/12 00:40:44;;;;;;;6.22;5.05;;;;;;;18.36;46.88;100485.41;10166453;29;20040;-77
2023/06/12 00:45:47;;;;;;;9.32;5.75;;;;;;;18.34;47.08;100464.84;10160278;29;20157;-78
2023/06/12 00:50:53;;;;;;;6.22;5.18;;;;;;;18.26;47.68;100471.13;10166780;29;20147;-77
2023/06/12 00:55:56;;;;;;;7.55;5.78;;;;;;;18.18;48.03;100467.59;10167776;29;20040;-77
2023/06/12 01:00:59;;;;;;;8.02;5.65;;;;;;;18.21;47.73;100462.66;10166993;29;20040;-77
2023/06/12 01:06:09;;;;;;;10.77;6.28;;;;;;;17.99;48.13;100468.78;10161411;29;20120;-77
2023/06/12 06:10:19;;;;;;;6.47;5.55;;;;;;;19.35;48.24;100509.56;10181739;29;20082;-74
2023/06/12 06:15:23;;;;;;;6.68;5.60;;;;;;;19.50;48.33;100512.34;10180978;29;20044;-73
2023/06/12 06:20:27;;;;;;;10.63;6.72;;;;;;;19.80;48.32;100521.56;10184773;29;20048;-74
2023/06/12 06:25:32;;;;;;;7.85;5.57;;;;;;;20.04;47.04;100513.19;10182786;29;20091;-74
2023/06/12 06:30:35;;;;;;;9.25;5.82;;;;;;;20.37;46.41;100525.72;10186126;29;20127;-74
2023/06/12 06:35:38;;;;;;;7.05;6.07;;;;;;;20.61;46.33;100530.09;10186920;29;20042;-73
2023/06/12 06:40:43;;;;;;;9.70;5.90;;;;;;;20.42;45.43;100536.91;10186732;29;20047;-74
2023/06/12 06:45:46;;;;;;;10.70;6.20;;;;;;;20.74;45.32;100533.84;10183968;29;20044;-74
2023/06/12 06:50:49;;;;;;;10.75;6.40;;;;;;;21.25;45.27;100529.53;10189848;29;20047;-75
2023/06/12 06:55:53;;;;;;;11.27;6.65;;;;;;;21.63;44.95;100535.66;10207583;29;20044;-75
2023/06/12 07:00:58;;;;;;;10.27;6.93;;;;;;;21.84;nan;100540.31;10203114;29;20456;-75
2023/06/12 07:06:02;;;;;;;9.02;6.00;;;;;;;22.42;44.45;100540.22;10192498;29;20621;-76
2023/06/12 07:11:07;;;;;;;6.70;6.00;;;;;;;22.90;44.57;100535.72;10194774;29;20393;-76
2023/06/12 07:16:10;;;;;;;7.40;6.15;;;;;;;23.40;42.84;100530.09;10195175;29;20470;-76
2023/06/12 07:21:14;;;;;;;6.68;6.07;;;;;;;24.44;40.70;100537.06;10195629;29;20502;-76
2023/06/12 07:26:18;;;;;;;13.90;7.32;;;;;;;26.24;37.44;100537.19;10195960;29;20417;-75
2023/06/12 07:31:35;;;;;;;7.55;6.85;;;;;;;27.27;36.26;100528.28;10193240;29;20054;-76
2023/06/12 07:36:40;;;;;;;8.25;7.45;;;;;;;27.70;34.55;100535.59;10195115;29;20078;-76
2023/06/12 07:41:44;;;;;;;10.32;6.75;;;;;;;27.79;34.90;100534.19;10198671;29;20538;-76
2023/06/12 07:46:47;;;;;;;9.00;6.88;;;;;;;27.35;35.47;100532.66;10197529;29;20086;-73
2023/06/12 07:51:51;;;;;;;8.93;6.78;;;;;;;27.09;36.71;100526.38;10204473;29;20039;-73
2023/06/12 07:56:58;;;;;;;7.82;7.03;;;;;;;26.65;36.85;100522.81;10202031;29;20131;-74
2023/06/12 08:02:02;;;;;;;7.90;7.05;;;;;;;26.39;38.17;100528.59;10194730;29;20052;-73
2023/06/12 08:07:05;;;;;;;7.57;6.75;;;;;;;25.94;37.99;100529.53;10192414;29;20048;-74
2023/06/12 08:12:11;;;;;;;11.77;6.97;;;;;;;26.39;37.52;100523.09;10193489;29;20103;-73
2023/06/12 08:17:15;;;;;;;8.80;6.97;;;;;;;26.69;36.85;100513.03;10201580;29;20418;-74
2023/06/12 08:22:19;;;;;;;7.32;6.63;;;;;;;26.50;37.58;100519.59;10188523;29;20059;-74
2023/06/12 08:27:23;;;;;;;7.65;6.85;;;;;;;27.04;36.57;100517.13;10198604;29;20185;-73
2023/06/12 08:32:26;;;;;;;7.60;6.78;;;;;;;27.22;36.29;100516.28;10191081;29;20047;-74
2023/06/12 08:37:29;;;;;;;7.38;6.72;;;;;;;26.80;36.62;100516.94;10182844;29;20040;-74
2023/06/12 08:42:34;;;;;;;8.10;7.25;;;;;;;27.29;36.16;100515.13;10188076;29;20055;-74
2023/06/12 08:47:40;;;;;;;6.88;6.22;;;;;;;27.65;35.78;100510.63;10182367;29;20070;-76
2023/06/12 08:52:44;;;;;;;8.23;6.60;;;;;;;28.12;34.59;100513.53;10175477;29;20052;-75
2023/06/12 08:57:51;;;;;;;6.57;5.97;;;;;;;28.31;33.80;100516.22;10189169;29;20418;-76
2023/06/12 09:02:56;;;;;;;8.73;6.65;;;;;;;28.10;34.45;100512.94;10181947;29;20075;-76
2023/06/12 09:08:00;;;;;;;6.43;5.82;;;;;;;28.51;33.48;100505.63;10181068;29;20464;-76
2023/06/12 09:13:08;;;;;;;6.57;5.97;;;;;;;27.99;32.67;100511.81;10182972;29;20056;-75
2023/06/12 09:18:11;;;;;;;6.10;5.60;;;;;;;28.22;31.53;100512.94;10196415;29;20047;-75
2023/06/12 09:23:15;;;;;;;6.97;6.10;;;;;;;28.45;32.01;100504.69;10197820;29;20050;-76
2023/06/12 09:28:23;;;;;;;7.00;6.13;;;;;;;28.73;31.17;100518.88;10195345;29;20177;-75
2023/06/12 09:33:27;;;;;;;6.88;5.75;;;;;;;28.64;30.62;100523.94;10196685;29;20053;-76
2023/06/12 09:38:31;;;;;;;6.95;6.25;;;;;;;28.33;32.20;100512.13;10199771;29;20047;-76
2023/06/12 09:43:35;;;;;;;7.43;6.70;;;;;;;28.81;32.60;100526.78;10199232;29;20460;-76
2023/06/12 09:48:40;;;;;;;6.75;6.25;;;;;;;28.94;30.36;100516.31;10200380;29;20127;-76
2023/06/12 09:53:46;;;;;;;7.38;6.60;;;;;;;27.49;32.09;100530.59;10199321;29;20582;-75
2023/06/12 09:58:54;;;;;;;7.45;6.80;;;;;;;28.27;33.98;100518.59;10198120;29;20047;-76
2023/06/12 10:03:59;;;;;;;7.63;6.93;;;;;;;28.99;31.88;100517.50;10193146;29;20044;-76
2023/06/12 10:09:03;;;;;;;7.40;6.70;;;;;;;28.22;29.86;100512.94;10195071;29;20167;-76
2023/06/12 10:14:07;;;;;;;7.38;6.13;;;;;;;28.63;30.56;100523.09;10197829;29;20063;-76
2023/06/12 10:19:10;;;;;;;10.40;7.07;;;;;;;28.82;28.39;100515.47;10193898;29;20415;-76
2023/06/12 10:24:14;;;;;;;10.77;6.28;;;;;;;29.50;28.22;100502.81;10194402;29;20130;-75
2023/06/12 10:29:28;;;;;;;6.07;5.57;;;;;;;29.81;28.11;100500.63;10196372;29;20475;-75
2023/06/12 10:34:37;;;;;;;9.20;6.20;;;;;;;30.42;27.37;100496.16;10189503;29;20616;-76
2023/06/12 10:39:40;;;;;;;7.57;6.28;;;;;;;30.52;27.49;100486.31;10184560;29;20044;-75
2023/06/12 10:44:48;;;;;;;7.05;6.25;;;;;;;30.48;26.80;100484.03;10185029;29;20056;-75
2023/06/12 10:49:56;;;;;;;6.97;6.05;;;;;;;30.55;27.32;100481.06;10178668;29;20060;-76
2023/06/12 10:55:20;;;;;;;6.60;5.85;;;;;;;30.96;26.09;100486.38;10179281;29;20036;-76
2023/06/12 11:00:29;;;;;;;8.63;6.40;;;;;;;30.18;26.42;100473.34;10177711;29;20170;-76
2023/06/12 11:05:34;;;;;;;9.98;6.82;;;;;;;30.22;27.04;100476.44;10179138;29;20744;-76
2023/06/12 11:10:38;;;;;;;8.00;7.10;;;;;;;30.31;26.65;100472.16;10175155;29;20480;-76
2023/06/12 11:15:44;;;;;;;6.75;6.15;;;;;;;30.53;26.56;100472.19;10173419;29;20079;-75
2023/06/12 11:20:52;;;;;;;8.13;7.05;;;;;;;29.53;27.65;100465.50;10176722;29;20036;-76
2023/06/12 11:25:56;;;;;;;7.90;6.93;;;;;;;28.90;28.09;100472.81;10179541;29;20047;-75
2023/06/12 11:31:02;;;;;;;7.88;7.07;;;;;;;28.45;29.23;100474.28;10183986;29;20055;-75
2023/06/12 11:36:14;;;;;;;9.77;6.20;;;;;;;29.04;28.40;100463.13;10182273;29;20062;-76
2023/06/12 11:41:17;;;;;;;6.47;5.90;;;;;;;30.03;27.53;100456.44;10187229;29;20048;-78
2023/06/12 11:46:22;;;;;;;6.30;5.07;;;;;;;30.95;26.59;100456.97;10188662;29;20048;-76
2023/06/12 11:51:25;;;;;;;5.95;5.35;;;;;;;30.74;25.70;100461.41;10189306;29;20044;-76
2023/06/12 11:56:29;;;;;;;8.63;5.28;;;;;;;31.34;25.10;100447.47;10187664;29;20055;-76
2023/06/12 12:01:39;;;;;;;6.35;5.00;;;;;;;31.26;25.00;100458.19;10188396;29;20047;-76
2023/06/12 12:06:48;;;;;;;6.47;4.65;;;;;;;31.81;23.62;100447.94;10193577;29;20487;-76
2023/06/12 12:11:52;;;;;;;6.25;5.20;;;;;;;32.15;22.68;100448.50;10191451;29;20791;-77
2023/06/12 12:17:04;;;;;;;7.80;5.57;;;;;;;32.12;22.70;100452.66;10190747;29;20047;-76
2023/06/12 12:22:10;;;;;;;5.57;5.00;;;;;;;32.05;21.60;100440.91;10192863;29;20616;-76
2023/06/12 12:27:13;;;;;;;8.55;5.00;;;;;;;32.31;22.34;100447.53;10193010;29;20055;-76
2023/06/12 12:32:17;;;;;;;8.38;4.93;;;;;;;32.32;22.76;100451.97;10204170;29;20043;-77
2023/06/12 12:37:20;;;;;;;5.30;4.18;;;;;;;32.85;23.04;100441.69;10195114;29;20442;-76
2023/06/12 12:42:24;;;;;;;6.13;5.00;;;;;;;32.79;22.14;100433.63;10189731;29;20471;-76
2023/06/12 12:47:29;;;;;;;5.88;4.90;;;;;;;32.57;21.33;100437.38;10191053;29;20044;-76
2023/06/12 12:52:32;;;;;;;5.85;4.28;;;;;;;32.73;22.21;100435.53;10188617;29;20063;-76
2023/06/12 12:57:42;;;;;;;6.35;4.32;;;;;;;32.69;22.43;100419.66;10187182;29;20039;-76
2023/06/12 13:02:46;;;;;;;8.73;4.10;;;;;;;32.75;22.42;100421.34;10189547;29;20068;-75
2023/06/12 13:07:49;;;;;;;6.50;4.50;;;;;;;32.22;23.96;100429.66;10191050;29;20048;-76
2023/06/12 13:12:52;;;;;;;6.22;4.50;;;;;;;33.12;22.17;100421.22;10186871;29;20232;-76
2023/06/12 13:17:58;;;;;;;8.07;4.20;;;;;;;33.21;21.65;100415.97;10186694;29;20095;-76
2023/06/12 13:23:01;;;;;;;6.45;4.22;;;;;;;33.47;20.91;100405.72;10184520;29;20047;-76
2023/06/12 13:28:04;;;;;;;5.55;4.18;;;;;;;33.21;20.97;100404.84;10179999;29;20044;-75
2023/06/12 13:33:08;;;;;;;4.88;4.40;;;;;;;33.10;22.06;100403.94;10181120;29;20423;-76
2023/06/12 13:38:11;;;;;;;5.20;4.55;;;;;;;33.42;21.45;100395.41;10181311;29;20047;-76
2023/06/12 13:43:14;;;;;;;6.70;4.45;;;;;;;33.35;21.66;100410.72;10175153;29;20549;-76
2023/06/12 13:48:20;;;;;;;6.50;4.35;;;;;;;33.38;22.04;100399.88;10185910;29;20124;-76
2023/06/12 13:53:23;;;;;;;8.52;4.13;;;;;;;33.70;21.64;100399.63;10184131;29;20071;-76
2023/06/12 13:58:25;;;;;;;6.53;4.20;;;;;;;33.88;20.76;100398.22;10189014;29;20051;-75
2023/06/12 14:03:30;;;;;;;7.93;4.95;;;;;;;33.24;21.65;100390.38;10190133;29;20048;-76
2023/06/12 14:08:40;;;;;;;4.32;3.92;;;;;;;33.85;21.69;100389.63;10189842;29;20098;-76
2023/06/12 14:13:43;;;;;;;6.10;4.72;;;;;;;33.95;21.88;100384.84;10194457;29;20094;-76
2023/06/12 14:18:47;;;;;;;7.25;4.07;;;;;;;33.58;21.44;100390.69;10191256;29;20043;-76
2023/06/12 14:23:51;;;;;;;6.13;4.07;;;;;;;33.16;20.97;100389.00;10195012;29;20066;-75
2023/06/12 14:28:54;;;;;;;8.65;3.97;;;;;;;33.87;21.58;100377.06;10195490;29;20048;-76
2023/06/12 14:33:58;;;;;;;4.18;3.78;;;;;;;33.02;22.38;100383.09;10193833;29;20110;-76
2023/06/12 14:39:01;;;;;;;4.50;3.70;;;;;;;33.01;21.54;100380.56;10190165;29;20044;-76
2023/06/12 14:44:04;;;;;;;5.88;4.30;;;;;;;32.51;21.86;100379.25;10190731;29;20042;-76
2023/06/12 14:49:08;;;;;;;6.75;4.88;;;;;;;32.46;22.00;100377.28;10196857;29;20063;-76
2023/06/12 14:54:11;;;;;;;4.78;4.05;;;;;;;32.38;21.58;100372.25;10195989;29;20443;-77
2023/06/12 14:59:14;;;;;;;5.80;4.05;;;;;;;32.86;21.59;100378.59;10197691;29;20078;-76
2023/06/12 15:04:18;;;;;;;6.50;3.88;;;;;;;32.20;21.35;100379.09;10200800;29;20107;-76
2023/06/12 15:09:21;;;;;;;4.15;3.50;;;;;;;32.37;21.11;100365.84;10201648;29;20116;-76
2023/06/12 15:14:27;;;;;;;4.53;4.13;;;;;;;32.87;20.89;100372.75;10201965;29;20066;-76
2023/06/12 15:19:31;;;;;;;3.92;3.53;;;;;;;32.69;21.37;100373.22;10196080;29;20042;-76
2023/06/12 15:24:34;;;;;;;7.05;3.60;;;;;;;32.45;21.05;100370.06;10192552;29;20103;-77
2023/06/12 15:29:37;;;;;;;5.15;3.90;;;;;;;32.16;20.44;100372.38;10194782;29;20115;-76
2023/06/12 15:34:43;;;;;;;5.57;3.95;;;;;;;31.83;20.42;100368.00;10191249;29;20140;-76
2023/06/12 15:39:47;;;;;;;6.03;3.80;;;;;;;32.23;20.02;100371.06;10190927;29;20052;-76
2023/06/12 15:44:49;;;;;;;4.10;3.40;;;;;;;32.18;20.79;100367.41;10189920;29;20522;-76
2023/06/12 15:49:54;;;;;;;4.85;3.95;;;;;;;32.17;19.93;100360.16;10187456;29;20040;-76
2023/06/12 15:54:57;;;;;;;3.88;3.42;;;;;;;32.15;19.30;100362.38;10187939;29;20056;-76
2023/06/12 16:00:00;;;;;;;4.97;3.42;;;;;;;32.36;19.65;100366.94;10181182;29;20103;-76
2023/06/12 16:05:10;;;;;;;4.47;3.50;;;;;;;32.46;19.41;100363.38;10184838;29;20056;-74
2023/06/12 16:10:14;;;;;;;3.50;3.17;;;;;;;33.04;19.34;100360.53;10185602;29;20075;-76
2023/06/12 16:15:16;;;;;;;4.63;3.30;;;;;;;32.99;19.10;100358.56;10184448;29;20055;-76
2023/06/12 16:20:22;;;;;;;4.25;3.78;;;;;;;32.93;19.54;100350.50;10184980;29;20054;-75
2023/06/12 16:25:25;;;;;;;6.00;4.10;;;;;;;32.84;19.54;100350.22;10187112;29;20947;-76
2023/06/12 16:30:27;;;;;;;4.40;3.45;;;;;;;34.00;19.74;100347.78;10191832;29;20423;-76
2023/06/12 16:35:32;;;;;;;7.20;3.58;;;;;;;37.38;17.15;100331.66;10194525;29;20055;-75
2023/06/12 16:40:35;;;;;;;6.50;3.35;;;;;;;40.01;16.48;100336.88;10193734;29;20050;-76
2023/06/12 16:45:39;;;;;;;5.13;3.70;;;;;;;41.91;15.45;100334.56;10198463;29;20063;-76
2023/06/12 16:50:43;;;;;;;6.82;3.75;;;;;;;42.16;14.39;100333.69;10197506;29;20480;-76
2023/06/12 16:55:46;;;;;;;4.22;3.83;;;;;;;42.73;13.80;100324.72;10198122;29;20048;-76
2023/06/12 17:00:51;;;;;;;3.40;3.08;;;;;;;42.54;13.85;100320.69;10198662;29;20419;-76
2023/06/12 17:05:55;;;;;;;7.38;3.22;;;;;;;42.44;13.98;100324.72;10211325;28;20048;-76
2023/06/12 17:11:02;;;;;;;4.95;3.60;;;;;;;42.35;14.38;100316.31;10200931;29;20048;-76
2023/06/12 17:16:05;;;;;;;6.70;3.58;;;;;;;42.60;14.71;100322.16;10200577;29;20047;-76
2023/06/12 17:21:10;;;;;;;5.00;3.40;;;;;;;43.32;13.79;100328.56;10196614;29;20052;-75
2023/06/12 17:26:12;;;;;;;4.50;4.03;;;;;;;41.94;14.65;100323.47;10190992;29;20078;-77
2023/06/12 17:31:16;;;;;;;6.93;4.10;;;;;;;42.23;14.89;100330.31;10194805;29;20067;-76
2023/06/12 17:36:20;;;;;;;5.15;3.75;;;;;;;42.58;15.24;100318.84;10192118;29;20507;-76
2023/06/12 17:41:24;;;;;;;4.30;3.35;;;;;;;41.56;15.52;100321.41;10189227;29;20055;-76
2023/06/12 17:46:26;;;;;;;9.50;4.15;;;;;;;40.05;16.46;100313.41;10188684;29;20054;-76
2023/06/12 17:51:31;;;;;;;7.35;3.97;;;;;;;34.80;19.45;100321.84;10188897;29;20115;-76
2023/06/12 17:56:34;;;;;;;4.78;3.15;;;;;;;31.43;23.28;100319.34;10191311;29;20135;-75
2023/06/12 18:01:36;;;;;;;5.65;3.83;;;;;;;29.72;24.13;100327.75;10185067;29;20472;-74
2023/06/12 18:06:41;;;;;;;6.65;4.00;;;;;;;28.85;25.70;100324.28;10184443;29;20047;-75
2023/06/12 18:11:44;;;;;;;4.53;4.13;;;;;;;27.97;26.62;100323.50;10190636;29;20042;-75
2023/06/12 18:16:46;;;;;;;5.00;3.88;;;;;;;27.28;27.66;100325.09;10190631;29;20052;-73
2023/06/12 18:21:51;;;;;;;4.78;4.00;;;;;;;26.88;28.23;100323.78;10177046;29;20123;-74
2023/06/12 18:26:54;;;;;;;8.75;4.40;;;;;;;26.58;29.29;100309.97;10177460;29;20052;-73
2023/06/12 18:31:57;;;;;;;7.30;4.47;;;;;;;26.35;29.63;100324.44;10173067;29;20143;-73
2023/06/12 18:37:03;;;;;;;8.30;4.65;;;;;;;26.23;29.61;100318.88;10179776;29;20041;-73
2023/06/12 18:42:07;;;;;;;5.68;3.70;;;;;;;25.99;29.42;100319.72;10179144;29;20052;-74
2023/06/12 18:47:09;;;;;;;13.68;5.53;;;;;;;25.88;29.53;100323.25;10183992;29;20526;-73
2023/06/12 18:52:14;;;;;;;6.53;4.28;;;;;;;25.63;29.40;100316.69;10186706;29;20181;-75
2023/06/12 18:57:17;;;;;;;7.93;4.60;;;;;;;25.44;29.83;100320.44;10182023;29;20590;-74
2023/06/12 19:02:19;;;;;;;5.88;4.35;;;;;;;25.15;30.18;100324.66;10187164;29;20048;-74
2023/06/12 19:07:26;;;;;;;7.18;4.15;;;;;;;24.95;30.21;100322.00;10186733;29;20191;-74
2023/06/12 19:12:29;;;;;;;10.55;4.40;;;;;;;24.75;30.49;100327.63;10189513;29;20555;-74
2023/06/12 19:17:31;;;;;;;8.80;4.60;;;;;;;24.51;30.80;100323.72;10184791;29;20114;-73
2023/06/12 19:22:36;;;;;;;7.63;4.20;;;;;;;24.28;31.53;100321.47;10187850;29;20048;-75
2023/06/12 19:27:38;;;;;;;7.97;4.28;;;;;;;24.15;31.45;100327.84;10198745;29;20056;-75
2023/06/12 19:32:43;;;;;;;10.27;4.90;;;;;;;24.00;31.92;100332.75;10214691;29;20055;-75
2023/06/12 19:37:49;;;;;;;10.05;4.68;;;;;;;23.85;32.15;100328.31;10200829;29;20050;-74
2023/06/12 19:42:52;;;;;;;6.07;4.70;;;;;;;23.72;32.10;100336.53;10200374;29;20039;-74
2023/06/12 19:47:56;;;;;;;7.03;4.53;;;;;;;23.58;32.24;100337.59;10196141;29;20048;-73
2023/06/12 19:53:00;;;;;;;5.28;4.38;;;;;;;23.42;32.75;100325.13;10197781;29;20047;-75
2023/06/12 19:58:03;;;;;;;8.18;4.88;;;;;;;23.27;32.75;100332.75;10199966;29;20050;-75
2023/06/12 20:03:06;;;;;;;5.47;4.53;;;;;;;23.15;33.11;100344.31;10199862;29;20055;-74
2023/06/12 20:08:10;;;;;;;6.70;4.40;;;;;;;23.03;33.48;100345.94;10198843;29;20055;-74
2023/06/12 20:13:13;;;;;;;6.05;4.68;;;;;;;22.85;33.60;100354.75;10198428;29;20058;-73
2023/06/12 20:18:16;;;;;;;5.55;4.45;;;;;;;22.74;33.32;100345.25;10196522;29;20052;-75
2023/06/12 20:23:21;;;;;;;7.15;5.03;;;;;;;22.52;33.59;100344.53;10189541;29;20055;-74
2023/06/12 20:28:24;;;;;;;4.78;4.30;;;;;;;22.45;34.01;100354.59;10186202;29;20121;-75
2023/06/12 20:33:27;;;;;;;5.60;5.05;;;;;;;22.41;33.63;100338.75;10183224;29;20122;-75
2023/06/12 20:38:32;;;;;;;6.82;4.72;;;;;;;22.35;33.88;100345.88;10191332;29;20050;-75
2023/06/12 20:43:35;;;;;;;8.27;4.80;;;;;;;22.24;34.25;100350.03;10193405;29;20635;-75
2023/06/12 20:48:37;;;;;;;7.80;4.45;;;;;;;22.13;34.43;100358.78;10180382;29;20044;-74
2023/06/12 20:53:42;;;;;;;9.13;4.60;;;;;;;21.99;34.40;100357.84;10173097;29;20447;-75
2023/06/12 20:58:45;;;;;;;6.93;4.28;;;;;;;21.84;34.26;100354.41;10178744;29;20044;-75
2023/06/12 21:03:48;;;;;;;6.20;4.60;;;;;;;21.80;34.08;100348.50;10171561;29;20059;-75
2023/06/12 21:08:56;;;;;;;8.10;4.53;;;;;;;21.69;33.94;100348.97;10172539;29;20549;-75
2023/06/12 21:14:02;;;;;;;4.93;4.40;;;;;;;21.56;34.14;100354.38;10179327;29;20044;-73
2023/06/12 21:19:05;;;;;;;8.07;4.55;;;;;;;21.49;34.01;100356.19;10180157;29;20097;-75
2023/06/12 21:24:10;;;;;;;8.00;4.95;;;;;;;21.45;33.71;100353.00;10188468;29;20420;-75
2023/06/12 21:29:13;;;;;;;7.30;4.90;;;;;;;21.46;33.72;100346.50;10181001;29;20053;-75
2023/06/12 21:34:15;;;;;;;11.90;5.47;;;;;;;21.34;34.15;100359.00;10184620;29;20050;-74
2023/06/12 21:39:20;;;;;;;7.75;5.70;;;;;;;21.32;34.14;100352.88;10184330;29;20051;-76
2023/06/12 21:44:23;;;;;;;9.50;6.10;;;;;;;21.26;34.38;100351.78;10185900;29;20392;-75
2023/06/12 21:49:25;;;;;;;7.03;6.03;;;;;;;21.18;34.37;100349.19;10197770;29;20099;-76
2023/06/12 21:54:30;;;;;;;8.70;7.10;;;;;;;21.15;34.48;100353.16;10195091;29;20046;-74
2023/06/12 21:59:32;;;;;;;8.90;6.38;;;;;;;21.16;34.89;100352.09;10186415;29;20501;-75
2023/06/12 22:04:35;;;;;;;6.05;5.40;;;;;;;21.06;34.97;100348.84;10186638;29;20044;-75
2023/06/12 22:09:40;;;;;;;7.40;4.95;;;;;;;20.97;34.99;100349.97;10186599;29;20456;-75
2023/06/12 22:14:43;;;;;;;8.15;5.07;;;;;;;20.89;34.86;100353.66;10186785;29;20047;-76
2023/06/12 22:19:45;;;;;;;12.80;5.10;;;;;;;20.81;34.96;100363.84;10188730;29;20492;-75
2023/06/12 22:24:50;;;;;;;6.95;4.68;;;;;;;20.65;35.47;100357.59;10187469;29;20531;-74
2023/06/12 22:29:52;;;;;;;12.05;4.97;;;;;;;20.50;35.90;100356.78;10188035;29;20032;-75
2023/06/12 22:34:55;;;;;;;9.77;4.82;;;;;;;20.24;36.50;100355.34;10185315;29;20040;-74
2023/06/12 22:39:59;;;;;;;6.28;4.57;;;;;;;20.25;36.63;100361.66;10186489;29;20044;-74
2023/06/12 22:45:02;;;;;;;7.22;4.60;;;;;;;20.25;38.09;100356.19;10187541;29;20044;-74
2023/06/12 22:50:06;;;;;;;6.05;4.68;;;;;;;19.92;39.88;100367.47;10183000;29;20058;-74
2023/06/12 22:55:11;;;;;;;6.28;5.03;;;;;;;19.70;40.82;100357.47;10183773;29;20052;-74
2023/06/12 23:00:16;;;;;;;9.07;4.80;;;;;;;19.43;40.79;100355.09;10183493;29;20044;-75
2023/06/12 23:05:21;;;;;;;6.80;5.00;;;;;;;19.42;40.68;100360.75;10187882;29;20060;-75
2023/06/12 23:10:25;;;;;;;5.07;4.57;;;;;;;19.42;40.49;100352.56;10187312;29;20047;-74
2023/06/12 23:15:28;;;;;;;5.78;4.57;;;;;;;19.30;40.41;100351.28;10180793;29;20054;-74
2023/06/12 23:20:31;;;;;;;6.25;4.50;;;;;;;19.22;40.42;100361.22;10181278;29;20112;-75
2023/06/12 23:25:36;;;;;;;5.25;4.07;;;;;;;19.18;40.51;100354.44;10181277;29;20392;-74
2023/06/12 23:30:39;;;;;;;6.78;4.68;;;;;;;19.13;40.30;100353.28;10182044;29;20367;-74
2023/06/12 23:35:42;;;;;;;8.18;5.32;;;;;;;19.09;40.57;100354.66;10185799;29;20056;-74
2023/06/12 23:40:46;;;;;;;6.95;5.80;;;;;;;19.02;41.28;100352.69;10184515;29;20040;-75
2023/06/12 23:45:49;;;;;;;8.13;5.65;;;;;;;18.91;41.29;100366.72;10183692;29;20539;-74
2023/06/12 23:50:52;;;;;;;5.47;4.55;;;;;;;18.66;41.91;100359.69;10188361;29;20040;-74
2023/06/12 23:55:56;;;;;;;6.65;4.97;;;;;;;18.69;41.87;100362.88;10191413;29;20040;-73
